createdAt,value
2019-03-22T00:01:31.676Z,70.78
2019-03-22T00:04:02.450Z,69.53
2019-03-22T00:06:33.160Z,63.30
2019-03-22T00:09:05.116Z,65.08
2019-03-22T00:11:35.803Z,66.97
2019-03-22T00:14:06.502Z,71.95
2019-03-22T00:16:37.192Z,68.85
2019-03-22T00:19:07.902Z,77.67
2019-03-22T00:21:39.534Z,80.25
2019-03-22T00:24:12.206Z,77.58
2019-03-22T00:26:44.013Z,79.55
2019-03-22T00:29:14.759Z,66.77
2019-03-22T00:31:45.512Z,76.17
2019-03-22T00:34:16.306Z,70.90
2019-03-22T00:36:47.038Z,75.35
2019-03-22T00:39:17.740Z,68.62
2019-03-22T00:41:48.427Z,65.87
2019-03-22T00:44:19.186Z,72.15
2019-03-22T00:46:49.899Z,71.10
2019-03-22T00:49:20.632Z,65.90
2019-03-22T00:51:51.317Z,71.62
2019-03-22T00:54:22.024Z,72.80
2019-03-22T00:56:52.676Z,65.83
2019-03-22T00:59:23.449Z,71.60
2019-03-22T01:01:54.302Z,69.00
2019-03-22T01:04:25.010Z,65.90
2019-03-22T01:06:55.734Z,68.10
2019-03-22T01:09:26.425Z,72.27
2019-03-22T01:11:57.207Z,70.83
2019-03-22T01:14:28.957Z,76.60
2019-03-22T01:16:59.759Z,74.12
2019-03-22T01:19:30.631Z,66.77
2019-03-22T01:22:01.328Z,63.83
2019-03-22T01:24:32.117Z,69.40
2019-03-22T01:27:02.787Z,75.52
2019-03-22T01:29:33.514Z,75.28
2019-03-22T01:32:04.168Z,74.05
2019-03-22T01:34:34.945Z,71.85
2019-03-22T01:37:05.647Z,62.13
2019-03-22T01:39:36.346Z,72.78
2019-03-22T01:42:07.049Z,71.25
2019-03-22T01:44:37.726Z,74.22
2019-03-22T01:47:09.919Z,66.35
2019-03-22T01:49:40.670Z,64.35
2019-03-22T01:52:11.319Z,76.97
2019-03-22T01:54:42.079Z,73.37
2019-03-22T01:57:12.707Z,71.62
2019-03-22T01:59:43.443Z,69.20
2019-03-22T02:02:14.233Z,84.32
2019-03-22T02:04:45.040Z,70.03
2019-03-22T02:07:15.715Z,80.25
2019-03-22T02:09:46.509Z,61.95
2019-03-22T02:12:17.281Z,64.80
2019-03-22T02:14:48.062Z,74.55
2019-03-22T02:17:18.791Z,67.67
2019-03-22T02:19:49.789Z,76.22
2019-03-22T02:22:20.469Z,59.10
2019-03-22T02:24:52.183Z,63.02
2019-03-22T02:27:22.945Z,60.75
2019-03-22T02:29:53.679Z,72.70
2019-03-22T02:32:24.508Z,72.32
2019-03-22T02:34:55.220Z,69.17
2019-03-22T02:37:25.896Z,70.92
2019-03-22T02:39:56.594Z,67.67
2019-03-22T02:42:27.254Z,68.10
2019-03-22T02:44:59.285Z,90.72
2019-03-22T02:47:29.922Z,82.27
2019-03-22T02:50:11.664Z,71.77
2019-03-22T02:52:33.083Z,67.53
2019-03-22T02:55:03.820Z,86.30
2019-03-22T02:57:34.455Z,65.75
2019-03-22T03:00:06.844Z,69.37
2019-03-22T03:02:37.621Z,62.88
2019-03-22T03:05:08.895Z,67.12
2019-03-22T03:07:39.606Z,60.45
2019-03-22T03:10:11.399Z,69.58
2019-03-22T03:12:42.061Z,74.05
2019-03-22T03:15:14.244Z,75.97
2019-03-22T03:17:44.894Z,68.12
2019-03-22T03:20:16.423Z,72.37
2019-03-22T03:22:47.497Z,63.15
2019-03-22T03:25:18.431Z,68.15
2019-03-22T03:27:49.138Z,65.80
2019-03-22T03:30:20.464Z,64.97
2019-03-22T03:32:51.250Z,65.62
2019-03-22T03:35:22.002Z,64.87
2019-03-22T03:37:55.527Z,64.22
2019-03-22T03:40:26.223Z,59.83
2019-03-22T03:42:57.210Z,63.00
2019-03-22T03:45:34.228Z,62.05
2019-03-22T03:48:06.242Z,63.68
2019-03-22T03:50:37.059Z,62.70
2019-03-22T03:53:08.132Z,63.17
2019-03-22T03:55:38.986Z,91.87
2019-03-22T03:58:09.700Z,64.53
2019-03-22T04:00:40.558Z,79.53
2019-03-22T04:03:11.269Z,85.47
2019-03-22T04:05:44.861Z,84.20
2019-03-22T04:08:17.708Z,90.45
2019-03-22T04:10:48.440Z,89.35
2019-03-22T04:13:19.112Z,74.35
2019-03-22T04:15:49.932Z,190.22
2019-03-22T04:18:20.655Z,85.32
2019-03-22T04:20:52.661Z,84.95
2019-03-22T04:23:23.376Z,314.12
2019-03-22T04:25:54.174Z,270.27
2019-03-22T04:28:24.995Z,237.72
2019-03-22T04:30:56.677Z,250.68
2019-03-22T04:33:27.373Z,235.43
2019-03-22T04:35:59.860Z,657.23
2019-03-22T04:38:32.109Z,272.25
2019-03-22T04:41:02.964Z,111.35
2019-03-22T04:43:33.719Z,102.22
2019-03-22T04:46:05.363Z,103.60
2019-03-22T04:48:37.758Z,96.78
2019-03-22T04:51:10.202Z,86.05
2019-03-22T04:53:54.770Z,83.22
2019-03-22T04:56:34.738Z,79.72
2019-03-22T04:59:18.907Z,84.62
2019-03-22T05:01:46.022Z,102.00
2019-03-22T05:04:17.821Z,107.47
2019-03-22T05:06:50.342Z,157.95
2019-03-22T05:09:28.079Z,157.80
2019-03-22T05:12:01.144Z,89.92
2019-03-22T05:14:34.165Z,190.50
2019-03-22T05:17:08.039Z,663.95
2019-03-22T05:19:41.570Z,706.80
2019-03-22T05:22:14.363Z,378.85
2019-03-22T05:24:51.081Z,269.70
2019-03-22T05:27:23.165Z,185.50
2019-03-22T05:29:56.609Z,129.95
2019-03-22T05:32:29.667Z,150.78
2019-03-22T05:35:07.826Z,208.15
2019-03-22T05:37:40.422Z,223.97
2019-03-22T05:40:11.150Z,220.70
2019-03-22T05:42:45.417Z,240.55
2019-03-22T05:45:16.125Z,222.52
2019-03-22T05:47:46.831Z,155.37
2019-03-22T05:50:17.661Z,242.28
2019-03-22T05:52:48.389Z,315.10
2019-03-22T05:55:20.733Z,169.47
2019-03-22T05:57:51.497Z,158.12
2019-03-22T06:00:22.166Z,169.13
2019-03-22T06:02:52.912Z,139.82
2019-03-22T06:05:23.753Z,170.87
2019-03-22T06:07:54.559Z,160.72
2019-03-22T06:10:25.914Z,233.90
2019-03-22T06:12:56.892Z,178.70
2019-03-22T06:15:27.821Z,163.43
2019-03-22T06:17:58.911Z,185.28
2019-03-22T06:20:29.680Z,330.80
2019-03-22T06:23:01.121Z,203.42
2019-03-22T06:25:31.899Z,116.17
2019-03-22T06:28:02.711Z,110.48
2019-03-22T06:30:33.611Z,192.53
2019-03-22T06:33:04.328Z,147.60
2019-03-22T06:35:35.116Z,117.33
2019-03-22T06:38:06.082Z,171.02
2019-03-22T06:40:36.788Z,158.75
2019-03-22T06:43:07.571Z,137.72
2019-03-22T06:45:38.294Z,139.05
2019-03-22T06:48:09.189Z,88.45
2019-03-22T06:50:39.960Z,99.45
2019-03-22T06:53:10.736Z,86.37
2019-03-22T06:55:41.515Z,86.12
2019-03-22T06:58:13.819Z,57.90
2019-03-22T07:00:44.698Z,55.55
2019-03-22T07:03:15.640Z,58.68
2019-03-22T07:05:46.468Z,54.00
2019-03-22T07:08:17.230Z,54.48
2019-03-22T07:10:48.038Z,54.58
2019-03-22T07:13:19.060Z,41.37
2019-03-22T07:15:50.043Z,57.13
2019-03-22T07:18:20.805Z,43.17
2019-03-22T07:20:51.538Z,55.60
2019-03-22T07:23:22.419Z,75.85
2019-03-22T07:25:53.134Z,50.17
2019-03-22T07:28:23.863Z,39.83
2019-03-22T07:30:54.798Z,50.85
2019-03-22T07:33:25.609Z,74.40
2019-03-22T07:35:56.391Z,183.47
2019-03-22T07:38:27.599Z,58.55
2019-03-22T07:40:58.585Z,59.58
2019-03-22T07:43:29.436Z,48.05
2019-03-22T07:46:00.406Z,47.60
2019-03-22T07:48:31.264Z,51.50
2019-03-22T07:51:03.152Z,57.78
2019-03-22T07:53:33.908Z,47.65
2019-03-22T07:56:04.791Z,51.55
2019-03-22T07:58:35.606Z,50.03
2019-03-22T08:01:06.468Z,53.75
2019-03-22T08:03:37.230Z,57.48
2019-03-22T08:06:08.010Z,57.03
2019-03-22T08:08:38.725Z,71.55
2019-03-22T08:11:09.392Z,61.55
2019-03-22T08:13:40.128Z,73.95
2019-03-22T08:16:10.827Z,80.07
2019-03-22T08:18:41.663Z,65.57
2019-03-22T08:21:12.390Z,65.75
2019-03-22T08:23:43.130Z,78.50
2019-03-22T08:26:13.849Z,62.45
2019-03-22T08:28:44.728Z,63.95
2019-03-22T08:31:15.512Z,76.77
2019-03-22T08:33:46.293Z,72.37
2019-03-22T08:36:16.999Z,70.42
2019-03-22T08:38:47.677Z,77.97
2019-03-22T08:41:19.378Z,81.40
2019-03-22T08:43:50.500Z,75.67
2019-03-22T08:46:21.803Z,83.78
2019-03-22T08:48:54.108Z,70.37
2019-03-22T08:51:35.071Z,74.58
2019-03-22T08:54:06.015Z,76.20
2019-03-22T08:56:36.624Z,63.55
2019-03-22T08:59:08.829Z,75.80
2019-03-22T09:01:41.652Z,68.00
2019-03-22T09:04:14.235Z,72.58
2019-03-22T09:06:46.180Z,66.05
2019-03-22T09:09:19.848Z,71.35
2019-03-22T09:12:01.968Z,69.55
2019-03-22T09:15:15.908Z,69.60
2019-03-22T09:17:53.483Z,80.17
2019-03-22T09:20:28.312Z,80.62
2019-03-22T09:23:04.411Z,71.45
2019-03-22T09:25:38.556Z,76.20
2019-03-22T09:28:11.794Z,76.87
2019-03-22T09:30:43.182Z,75.52
2019-03-22T09:33:15.659Z,120.82
2019-03-22T09:35:47.367Z,85.53
2019-03-22T09:38:18.562Z,80.22
2019-03-22T09:40:49.507Z,80.28
2019-03-22T09:43:22.687Z,84.17
2019-03-22T09:45:56.156Z,79.95
2019-03-22T09:48:29.216Z,78.45
2019-03-22T09:51:01.309Z,74.12
2019-03-22T09:53:33.981Z,80.38
2019-03-22T09:56:06.057Z,86.40
2019-03-22T09:58:38.331Z,113.90
2019-03-22T10:02:02.488Z,112.32
2019-03-22T10:04:48.940Z,83.58
2019-03-22T10:07:26.904Z,84.75
2019-03-22T10:10:56.067Z,85.28
2019-03-22T10:13:52.716Z,90.20
2019-03-22T10:16:57.000Z,84.70
2019-03-22T10:19:42.140Z,86.15
2019-03-22T10:22:15.651Z,80.47
2019-03-22T10:24:46.629Z,84.15
2019-03-22T10:27:21.966Z,89.60
2019-03-22T10:29:52.867Z,84.22
2019-03-22T10:32:24.070Z,83.85
2019-03-22T10:34:55.216Z,117.15
2019-03-22T10:37:26.174Z,82.53
2019-03-22T10:39:57.066Z,82.75
2019-03-22T10:42:27.938Z,91.85
2019-03-22T10:44:58.722Z,90.45
2019-03-22T10:47:29.946Z,74.53
2019-03-22T10:50:00.799Z,78.57
2019-03-22T10:52:31.631Z,68.55
2019-03-22T10:55:17.210Z,79.32
2019-03-22T10:57:34.915Z,115.97
2019-03-22T11:00:06.932Z,92.65
2019-03-22T11:02:38.455Z,86.32
2019-03-22T11:05:10.107Z,70.22
2019-03-22T11:07:40.923Z,80.07
2019-03-22T11:10:13.698Z,69.40
2019-03-22T11:12:44.445Z,74.67
2019-03-22T11:15:15.941Z,64.65
2019-03-22T11:17:46.733Z,73.28
2019-03-22T11:20:17.731Z,63.95
2019-03-22T11:22:48.999Z,82.12
2019-03-22T11:25:20.591Z,60.55
2019-03-22T11:27:51.705Z,70.78
2019-03-22T11:30:22.618Z,76.02
2019-03-22T11:32:59.329Z,73.10
2019-03-22T11:35:30.813Z,65.28
2019-03-22T11:38:02.532Z,85.62
2019-03-22T11:40:37.059Z,68.95
2019-03-22T11:43:09.061Z,68.07
2019-03-22T11:45:39.961Z,66.37
2019-03-22T11:48:11.991Z,61.85
2019-03-22T11:53:21.923Z,61.10
2019-03-22T11:55:52.677Z,58.00
2019-03-22T11:58:23.553Z,72.97
2019-03-22T12:00:54.332Z,63.95
2019-03-22T12:03:25.110Z,63.63
2019-03-22T12:05:55.851Z,56.98
2019-03-22T12:08:26.555Z,58.90
2019-03-22T12:10:57.520Z,58.52
2019-03-22T12:13:28.208Z,58.73
2019-03-22T12:15:58.889Z,69.20
2019-03-22T12:18:29.571Z,61.55
2019-03-22T12:21:00.742Z,59.15
2019-03-22T12:23:31.392Z,54.10
2019-03-22T12:26:02.245Z,60.83
2019-03-22T12:28:33.946Z,54.65
2019-03-22T12:31:04.704Z,46.77
2019-03-22T12:33:35.415Z,50.58
2019-03-22T12:36:06.115Z,48.17
2019-03-22T12:38:36.778Z,54.03
2019-03-22T12:41:07.535Z,52.38
2019-03-22T12:43:39.606Z,45.78
2019-03-22T12:46:10.515Z,50.80
2019-03-22T12:48:41.281Z,47.53
2019-03-22T12:51:12.113Z,48.58
2019-03-22T12:53:43.055Z,50.55
2019-03-22T12:56:13.791Z,66.55
2019-03-22T12:58:44.472Z,94.85
2019-03-22T13:01:15.207Z,55.85
2019-03-22T13:03:46.091Z,47.45
2019-03-22T13:06:17.395Z,52.78
2019-03-22T13:08:55.256Z,49.00
2019-03-22T13:11:26.012Z,46.40
2019-03-22T13:13:56.828Z,45.88
2019-03-22T13:16:27.554Z,50.38
2019-03-22T13:19:01.273Z,50.58
2019-03-22T13:21:32.046Z,48.35
2019-03-22T13:24:02.907Z,46.85
2019-03-22T13:26:34.439Z,93.82
2019-03-22T13:29:05.190Z,52.58
2019-03-22T13:31:36.036Z,46.13
2019-03-22T13:34:07.179Z,43.35
2019-03-22T13:36:38.550Z,52.43
2019-03-22T13:39:19.912Z,43.75
2019-03-22T13:41:50.672Z,47.45
2019-03-22T13:44:21.456Z,54.42
2019-03-22T13:46:52.398Z,42.35
2019-03-22T13:49:23.098Z,45.55
2019-03-22T13:51:56.582Z,39.75
2019-03-22T13:54:28.027Z,60.78
2019-03-22T13:56:59.093Z,43.73
2019-03-22T13:59:32.260Z,57.67
2019-03-22T14:02:03.145Z,44.42
2019-03-22T14:04:34.039Z,54.25
2019-03-22T14:07:04.920Z,43.08
2019-03-22T14:09:35.762Z,58.25
2019-03-22T14:12:06.600Z,49.95
2019-03-22T14:14:37.402Z,42.80
2019-03-22T14:17:10.686Z,45.33
2019-03-22T14:19:41.830Z,60.58
2019-03-22T14:22:12.727Z,46.95
2019-03-22T14:24:43.440Z,49.65
2019-03-22T14:27:14.203Z,55.52
2019-03-22T14:29:45.906Z,44.70
2019-03-22T14:32:16.617Z,44.20
2019-03-22T14:34:47.335Z,42.27
2019-03-22T14:37:18.201Z,42.17
2019-03-22T14:39:49.028Z,43.35
2019-03-22T14:42:19.774Z,45.67
2019-03-22T14:44:50.586Z,47.93
2019-03-22T14:47:21.328Z,39.42
2019-03-22T14:49:52.079Z,35.08
2019-03-22T14:52:22.825Z,47.30
2019-03-22T14:54:53.655Z,74.25
2019-03-22T14:57:24.326Z,55.25
2019-03-22T14:59:58.770Z,44.67
2019-03-22T15:02:27.461Z,61.98
2019-03-22T15:04:58.207Z,53.25
2019-03-22T15:07:28.991Z,59.85
2019-03-22T15:09:59.727Z,46.48
2019-03-22T15:12:30.528Z,74.40
2019-03-22T15:15:06.324Z,51.55
2019-03-22T15:18:08.091Z,54.50
2019-03-22T15:20:57.833Z,48.50
2019-03-22T15:23:46.255Z,46.18
2019-03-22T15:26:47.851Z,43.50
2019-03-22T15:29:32.897Z,39.98
2019-03-22T15:32:34.783Z,42.62
2019-03-22T15:35:19.217Z,42.53
2019-03-22T15:38:08.963Z,52.80
2019-03-22T15:40:39.674Z,77.37
2019-03-22T15:43:10.465Z,42.70
2019-03-22T15:45:41.219Z,37.08
2019-03-22T15:48:11.975Z,37.08
2019-03-22T15:50:45.099Z,49.55
2019-03-22T15:53:15.813Z,42.10
2019-03-22T15:55:46.497Z,45.38
2019-03-22T15:58:17.251Z,48.78
2019-03-22T16:00:47.957Z,45.33
2019-03-22T16:03:18.784Z,43.68
2019-03-22T16:05:49.503Z,41.20
2019-03-22T16:08:20.294Z,55.28
2019-03-22T16:10:50.971Z,53.30
2019-03-22T16:13:21.769Z,46.65
2019-03-22T16:15:52.514Z,50.48
2019-03-22T16:18:23.349Z,53.20
2019-03-22T16:21:00.282Z,52.62
2019-03-22T16:23:33.300Z,53.58
2019-03-22T16:26:03.869Z,51.63
2019-03-22T16:28:36.317Z,57.40
2019-03-22T16:31:07.356Z,61.63
2019-03-22T16:33:39.663Z,57.50
2019-03-22T16:36:10.445Z,82.25
2019-03-22T16:38:42.610Z,49.03
2019-03-22T16:41:16.690Z,56.75
2019-03-22T16:43:50.397Z,52.17
2019-03-22T16:46:22.778Z,56.90
2019-03-22T16:48:53.522Z,74.30
2019-03-22T16:51:24.188Z,57.80
2019-03-22T16:53:54.919Z,97.57
2019-03-22T16:56:25.594Z,61.05
2019-03-22T16:58:58.111Z,57.17
2019-03-22T17:01:31.135Z,66.60
2019-03-22T17:04:04.734Z,63.40
2019-03-22T17:06:34.300Z,65.62
2019-03-22T17:09:06.235Z,76.02
2019-03-22T17:11:37.049Z,67.30
2019-03-22T17:14:07.763Z,72.30
2019-03-22T17:16:41.518Z,67.17
2019-03-22T17:19:12.281Z,77.12
2019-03-22T17:21:42.952Z,70.72
2019-03-22T17:24:16.703Z,78.12
2019-03-22T17:26:50.894Z,68.55
2019-03-22T17:29:22.078Z,86.92
2019-03-22T17:31:52.836Z,77.03
2019-03-22T17:34:24.038Z,77.72
2019-03-22T17:36:55.160Z,145.22
2019-03-22T17:39:30.370Z,93.55
2019-03-22T17:42:02.219Z,78.57
2019-03-22T17:44:36.136Z,82.25
2019-03-22T17:47:07.600Z,85.80
2019-03-22T17:49:47.598Z,99.20
2019-03-22T17:52:11.348Z,76.85
2019-03-22T17:54:43.238Z,89.28
2019-03-22T17:57:18.847Z,80.45
2019-03-22T17:59:47.583Z,76.75
2019-03-22T18:02:18.487Z,82.75
2019-03-22T18:04:51.653Z,86.70
2019-03-22T18:07:27.329Z,82.45
2019-03-22T18:09:58.039Z,87.85
2019-03-22T18:12:28.695Z,80.17
2019-03-22T18:14:59.455Z,88.20
2019-03-22T18:17:30.388Z,87.50
2019-03-22T18:20:01.765Z,83.50
2019-03-22T18:22:32.705Z,97.37
2019-03-22T18:25:03.366Z,88.85
2019-03-22T18:27:35.510Z,91.53
2019-03-22T18:30:10.624Z,86.42
2019-03-22T18:32:41.467Z,85.50
2019-03-22T18:35:13.783Z,78.95
2019-03-22T18:37:44.694Z,81.17
2019-03-22T18:40:15.521Z,82.80
2019-03-22T18:42:46.351Z,76.35
2019-03-22T18:45:17.346Z,78.00
2019-03-22T18:47:48.017Z,82.97
2019-03-22T18:50:18.656Z,84.90
2019-03-22T18:52:49.553Z,83.55
2019-03-22T18:55:21.911Z,81.28
2019-03-22T18:57:52.844Z,82.75
2019-03-22T19:00:23.881Z,80.42
2019-03-22T19:02:54.676Z,77.30
2019-03-22T19:05:25.376Z,77.37
2019-03-22T19:07:56.287Z,80.03
2019-03-22T19:10:29.063Z,78.17
2019-03-22T19:12:59.873Z,77.85
2019-03-22T19:15:30.711Z,77.87
2019-03-22T19:18:02.099Z,77.12
2019-03-22T19:20:37.024Z,81.75
2019-03-22T19:23:07.708Z,73.67
2019-03-22T19:25:38.320Z,74.03
2019-03-22T19:28:10.022Z,89.30
2019-03-22T19:30:43.498Z,81.25
2019-03-22T19:33:14.431Z,76.92
2019-03-22T19:35:45.099Z,75.32
2019-03-22T19:38:15.987Z,75.80
2019-03-22T19:40:47.813Z,79.87
2019-03-22T19:43:20.092Z,79.27
2019-03-22T19:45:56.147Z,78.35
2019-03-22T19:48:30.392Z,73.55
2019-03-22T19:51:01.562Z,78.90
2019-03-22T19:53:37.168Z,83.40
2019-03-22T19:56:10.151Z,76.35
2019-03-22T19:58:46.438Z,80.15
2019-03-22T20:01:17.198Z,76.77
2019-03-22T20:03:47.874Z,75.28
2019-03-22T20:06:21.597Z,73.65
2019-03-22T20:08:53.340Z,73.85
2019-03-22T20:11:24.087Z,79.53
2019-03-22T20:13:54.999Z,77.03
2019-03-22T20:16:25.697Z,81.15
2019-03-22T20:18:56.397Z,74.07
2019-03-22T20:21:27.066Z,86.60
2019-03-22T20:23:57.972Z,82.10
2019-03-22T20:26:28.661Z,84.05
2019-03-22T20:28:59.560Z,85.72
2019-03-22T20:31:32.695Z,85.95
2019-03-22T20:34:03.508Z,89.30
2019-03-22T20:36:34.318Z,83.82
2019-03-22T20:39:07.170Z,90.45
2019-03-22T20:41:39.354Z,91.22
2019-03-22T20:44:10.063Z,82.17
2019-03-22T20:46:41.130Z,86.53
2019-03-22T20:49:12.080Z,81.63
2019-03-22T20:51:42.777Z,82.40
2019-03-22T20:54:21.098Z,88.15
2019-03-22T20:56:56.085Z,84.10
2019-03-22T20:59:30.853Z,81.05
2019-03-22T21:02:02.068Z,83.55
2019-03-22T21:04:35.553Z,88.52
2019-03-22T21:07:08.719Z,85.35
2019-03-22T21:09:39.492Z,90.30
2019-03-22T21:12:10.186Z,92.30
2019-03-22T21:14:40.990Z,87.85
2019-03-22T21:17:12.154Z,87.75
2019-03-22T21:19:43.322Z,91.82
2019-03-22T21:22:17.114Z,93.07
2019-03-22T21:24:52.920Z,86.78
2019-03-22T21:27:23.614Z,90.32
2019-03-22T21:29:54.339Z,95.32
2019-03-22T21:32:26.470Z,85.92
2019-03-22T21:34:57.338Z,86.25
2019-03-22T21:37:28.139Z,89.70
2019-03-22T21:39:58.870Z,88.42
2019-03-22T21:42:29.668Z,87.90
2019-03-22T21:45:00.470Z,87.25
2019-03-22T21:47:31.197Z,93.55
2019-03-22T21:50:01.833Z,89.67
2019-03-22T21:52:32.672Z,88.22
2019-03-22T21:55:06.552Z,88.52
2019-03-22T21:57:40.727Z,87.57
2019-03-22T22:00:11.827Z,96.08
2019-03-22T22:02:42.709Z,89.17
2019-03-22T22:05:16.932Z,92.30
2019-03-22T22:07:47.678Z,86.82
2019-03-22T22:10:18.362Z,93.05
2019-03-22T22:12:50.000Z,95.03
2019-03-22T22:15:26.854Z,82.80
2019-03-22T22:17:58.804Z,85.50
2019-03-22T22:20:29.551Z,83.65
2019-03-22T22:23:00.253Z,89.35
2019-03-22T22:25:30.932Z,86.42
2019-03-22T22:28:05.050Z,83.67
2019-03-22T22:30:37.769Z,83.33
2019-03-22T22:33:08.052Z,77.05
2019-03-22T22:35:41.192Z,80.97
2019-03-22T22:38:12.009Z,71.53
2019-03-22T22:40:42.754Z,79.05
2019-03-22T22:43:13.582Z,74.60
2019-03-22T22:45:44.374Z,80.62
2019-03-22T22:48:15.081Z,68.87
2019-03-22T22:50:45.988Z,67.60
2019-03-22T22:53:16.685Z,67.82
2019-03-22T22:55:50.848Z,68.62
2019-03-22T22:58:28.594Z,58.70
2019-03-22T23:00:59.373Z,60.90
2019-03-22T23:03:36.141Z,60.78
2019-03-22T23:06:10.854Z,62.85
2019-03-22T23:08:42.634Z,62.95
2019-03-22T23:11:15.216Z,59.42
2019-03-22T23:14:00.531Z,58.35
2019-03-22T23:16:37.823Z,63.35
2019-03-22T23:19:15.484Z,58.95
2019-03-22T23:21:48.432Z,59.45
2019-03-22T23:25:08.082Z,60.80
2019-03-22T23:27:42.694Z,61.58
2019-03-22T23:30:32.866Z,56.37
2019-03-22T23:36:35.559Z,56.40
2019-03-22T23:39:18.783Z,58.60
2019-03-22T23:41:58.057Z,62.67
2019-03-22T23:44:35.072Z,67.17
2019-03-22T23:47:29.870Z,58.35
2019-03-22T23:50:17.421Z,60.60
2019-03-22T23:52:52.561Z,57.48
2019-03-22T23:55:23.938Z,53.40
2019-03-22T23:57:58.513Z,53.70
